createdAt,value
2018-06-04T00:02:17.411Z,97806.53
2018-06-04T00:04:48.037Z,97790.50
2018-06-04T00:07:27.058Z,97797.41
2018-06-04T00:09:58.400Z,97799.17
2018-06-04T00:12:29.442Z,97796.95
2018-06-04T00:15:13.182Z,97798.72
2018-06-04T00:17:44.220Z,97798.65
2018-06-04T00:20:14.256Z,97795.68
2018-06-04T00:23:03.941Z,97795.52
2018-06-04T00:25:34.040Z,97788.52
2018-06-04T00:28:04.331Z,97776.23
2018-06-04T00:55:09.604Z,97772.38
2018-06-04T01:08:34.195Z,97759.87
2018-06-04T01:11:10.103Z,97754.59
2018-06-04T01:13:42.730Z,97759.63
2018-06-04T01:16:29.373Z,97763.47
2018-06-04T01:22:05.266Z,97761.75
2018-06-04T01:24:36.050Z,97757.52
2018-06-04T01:30:07.972Z,97750.31
2018-06-04T01:35:36.475Z,97749.59
2018-06-04T01:38:07.516Z,97744.47
2018-06-04T01:40:38.462Z,97747.20
2018-06-04T01:46:07.543Z,97743.00
2018-06-04T01:48:37.671Z,97739.55
2018-06-04T01:55:09.600Z,97737.39
2018-06-04T01:57:39.674Z,97738.63
2018-06-04T02:00:09.936Z,97732.80
2018-06-04T02:02:40.372Z,97737.03
2018-06-04T02:05:33.340Z,97743.91
2018-06-04T02:11:07.055Z,97729.63
2018-06-04T02:13:38.344Z,97729.63
2018-06-04T02:16:08.597Z,97732.54
2018-06-04T02:18:39.042Z,97725.81
2018-06-04T02:21:09.023Z,97727.46
2018-06-04T02:23:41.237Z,97723.50
2018-06-04T02:26:12.312Z,97723.09
2018-06-04T02:28:42.558Z,97726.02
2018-06-04T02:33:35.524Z,97729.77
2018-06-04T02:39:44.287Z,97717.12
2018-06-04T02:42:21.667Z,97719.36
2018-06-04T02:44:51.788Z,97719.67
2018-06-04T02:47:23.763Z,97717.10
2018-06-04T02:50:10.559Z,97714.36
2018-06-04T02:52:40.989Z,97713.80
2018-06-04T02:55:11.958Z,97715.72
2018-06-04T02:57:44.753Z,97714.91
2018-06-04T03:00:15.258Z,97709.91
2018-06-04T03:02:46.493Z,97713.66
2018-06-04T03:08:21.281Z,97720.25
2018-06-04T03:10:51.747Z,97715.34
2018-06-04T03:13:21.657Z,97717.02
2018-06-04T03:15:51.423Z,97720.61
2018-06-04T03:18:30.519Z,97717.56
2018-06-04T03:21:01.365Z,97714.17
2018-06-04T03:23:35.680Z,97712.34
2018-06-04T03:26:14.374Z,97718.20
2018-06-04T03:41:09.368Z,97721.83
2018-06-04T03:43:39.618Z,97719.28
2018-06-04T03:46:11.113Z,97715.72
2018-06-04T03:51:34.416Z,97716.91
2018-06-04T03:54:04.590Z,97719.02
2018-06-04T03:56:34.397Z,97719.02
2018-06-04T03:59:04.949Z,97722.16
2018-06-04T04:01:35.862Z,97727.61
2018-06-04T04:04:05.991Z,97723.17
2018-06-04T04:06:36.189Z,97723.23
2018-06-04T04:09:09.000Z,97723.50
2018-06-04T04:11:38.988Z,97722.95
2018-06-04T04:14:08.918Z,97729.08
2018-06-04T04:16:40.421Z,97730.88
2018-06-04T04:19:12.759Z,97728.44
2018-06-04T04:21:42.980Z,97729.58
2018-06-04T04:24:12.850Z,97730.20
2018-06-04T04:26:43.380Z,97731.85
2018-06-04T04:29:13.732Z,97726.62
2018-06-04T04:31:45.735Z,97729.63
2018-06-04T04:34:15.512Z,97730.60
2018-06-04T04:36:52.475Z,97728.02
2018-06-04T04:39:23.033Z,97728.86
2018-06-04T04:41:52.756Z,97735.03
2018-06-04T04:44:22.801Z,97730.44
2018-06-04T04:46:52.495Z,97736.47
2018-06-04T04:49:22.336Z,97744.20
2018-06-04T04:51:53.712Z,97741.12
2018-06-04T04:54:23.435Z,97732.55
2018-06-04T04:56:53.605Z,97744.71
2018-06-04T04:59:24.780Z,97743.79
2018-06-04T05:01:55.070Z,97739.81
2018-06-04T05:04:24.947Z,97741.70
2018-06-04T05:06:56.976Z,97744.83
2018-06-04T05:09:26.935Z,97742.48
2018-06-04T05:11:56.690Z,97744.42
2018-06-04T05:14:26.869Z,97744.23
2018-06-04T05:16:57.764Z,97740.59
2018-06-04T05:19:27.983Z,97745.84
2018-06-04T05:21:57.694Z,97741.67
2018-06-04T05:24:28.085Z,97744.73
2018-06-04T05:26:57.761Z,97741.34
2018-06-04T05:29:28.154Z,97741.59
2018-06-04T05:31:57.972Z,97744.31
2018-06-04T05:34:27.940Z,97745.10
2018-06-04T05:36:57.807Z,97736.40
2018-06-04T05:39:28.239Z,97737.34
2018-06-04T05:41:57.962Z,97736.26
2018-06-04T05:44:29.092Z,97740.16
2018-06-04T05:46:58.804Z,97740.53
2018-06-04T05:49:28.632Z,97746.20
2018-06-04T05:51:59.031Z,97742.29
2018-06-04T05:54:28.953Z,97736.08
2018-06-04T05:57:03.168Z,97735.02
2018-06-04T05:59:33.347Z,97734.95
2018-06-04T06:02:03.276Z,97729.08
2018-06-04T06:04:33.909Z,97726.05
2018-06-04T06:07:04.283Z,97725.95
2018-06-04T06:09:41.744Z,97723.02
2018-06-04T06:12:16.124Z,97715.13
2018-06-04T06:14:45.901Z,97718.17
2018-06-04T06:17:15.998Z,97715.83
2018-06-04T06:19:45.850Z,97716.86
2018-06-04T06:22:15.775Z,97716.35
2018-06-04T06:24:47.881Z,97713.39
2018-06-04T06:27:17.696Z,97706.42
2018-06-04T06:29:47.470Z,97707.75
2018-06-04T06:32:17.198Z,97704.75
2018-06-04T06:34:53.724Z,97700.78
2018-06-04T06:37:23.507Z,97705.07
2018-06-04T06:39:53.304Z,97698.58
2018-06-04T06:42:23.162Z,97701.86
2018-06-04T06:44:54.390Z,97691.34
2018-06-04T06:47:24.257Z,97697.80
2018-06-04T06:49:54.240Z,97691.78
2018-06-04T06:52:24.085Z,97698.73
2018-06-04T06:54:54.105Z,97692.20
2018-06-04T06:57:23.927Z,97701.27
2018-06-04T06:59:54.021Z,97691.00
2018-06-04T07:02:23.820Z,97701.36
2018-06-04T07:04:54.063Z,97698.83
2018-06-04T07:07:24.547Z,97698.44
2018-06-04T07:09:54.465Z,97699.77
2018-06-04T07:12:24.328Z,97693.59
2018-06-04T07:14:54.244Z,97698.09
2018-06-04T07:17:32.248Z,97689.92
2018-06-04T07:20:14.118Z,97697.22
2018-06-04T07:22:45.117Z,97700.48
2018-06-04T07:25:17.975Z,97698.80
2018-06-04T07:27:50.281Z,97698.21
2018-06-04T07:30:20.263Z,97697.55
2018-06-04T07:32:50.780Z,97696.96
2018-06-04T07:35:21.207Z,97698.45
2018-06-04T07:37:51.425Z,97696.45
2018-06-04T07:40:21.357Z,97691.41
2018-06-04T07:42:51.351Z,97687.36
2018-06-04T07:45:21.714Z,97690.57
2018-06-04T07:47:51.492Z,97689.89
2018-06-04T07:50:26.741Z,97692.49
2018-06-04T07:52:57.040Z,97692.77
2018-06-04T07:55:27.170Z,97691.44
2018-06-04T07:57:57.012Z,97691.80
2018-06-04T08:00:26.984Z,97692.19
2018-06-04T08:02:56.933Z,97693.09
2018-06-04T08:05:27.061Z,97693.61
2018-06-04T08:07:56.977Z,97690.58
2018-06-04T08:10:26.852Z,97689.36
2018-06-04T08:12:56.661Z,97682.67
2018-06-04T08:15:26.706Z,97683.45
2018-06-04T08:17:56.855Z,97687.42
2018-06-04T08:20:44.875Z,97685.86
2018-06-04T08:23:15.425Z,97688.23
2018-06-04T08:25:50.200Z,97687.65
2018-06-04T08:30:15.136Z,97690.50
2018-06-04T08:32:46.535Z,97693.05
2018-06-04T08:35:18.466Z,97689.91
2018-06-04T08:40:46.527Z,97694.64
2018-06-04T08:44:29.466Z,97695.19
2018-06-04T08:47:00.353Z,97689.01
2018-06-04T08:49:31.469Z,97694.06
2018-06-04T08:52:03.656Z,97697.73
2018-06-04T08:54:33.737Z,97704.94
2018-06-04T08:57:04.616Z,97699.88
2018-06-04T08:59:35.844Z,97700.95
2018-06-04T09:05:03.022Z,97695.19
2018-06-04T09:07:34.128Z,97695.99
2018-06-04T09:10:06.288Z,97698.81
2018-06-04T09:12:37.136Z,97691.08
2018-06-04T09:15:08.090Z,97701.77
2018-06-04T09:17:38.117Z,97699.53
2018-06-04T09:20:13.064Z,97698.53
2018-06-04T09:22:43.205Z,97700.33
2018-06-04T09:25:25.658Z,97702.98
2018-06-04T09:27:56.186Z,97701.41
2018-06-04T09:30:32.264Z,97702.30
2018-06-04T09:36:09.417Z,97693.77
2018-06-04T09:38:41.043Z,97693.71
2018-06-04T09:41:11.799Z,97687.84
2018-06-04T09:43:41.955Z,97691.25
2018-06-04T09:46:12.069Z,97683.02
2018-06-04T09:48:43.681Z,97687.89
2018-06-04T09:51:13.699Z,97686.62
2018-06-04T09:53:44.220Z,97693.06
2018-06-04T09:56:19.579Z,97683.08
2018-06-04T09:58:49.554Z,97683.75
2018-06-04T10:01:19.911Z,97681.16
2018-06-04T10:03:49.989Z,97670.80
2018-06-04T10:06:19.914Z,97676.13
2018-06-04T10:08:49.755Z,97670.19
2018-06-04T10:11:21.593Z,97655.11
2018-06-04T10:13:51.525Z,97649.55
2018-06-04T10:16:21.338Z,97627.85
2018-06-04T10:18:51.332Z,97644.95
2018-06-04T10:21:21.455Z,97648.83
2018-06-04T10:23:51.244Z,97652.63
2018-06-04T10:26:21.303Z,97653.16
2018-06-04T10:28:51.180Z,97653.00
2018-06-04T10:31:21.169Z,97653.28
2018-06-04T10:33:50.980Z,97641.80
2018-06-04T10:36:21.397Z,97647.72
2018-06-04T10:38:51.294Z,97642.70
2018-06-04T10:41:21.143Z,97642.78
2018-06-04T10:43:53.451Z,97644.06
2018-06-04T10:46:25.695Z,97632.45
2018-06-04T10:49:00.678Z,97635.68
2018-06-04T10:51:30.495Z,97631.50
2018-06-04T10:54:05.562Z,97633.76
2018-06-04T10:56:35.530Z,97627.95
2018-06-04T10:59:05.318Z,97621.29
2018-06-04T11:01:35.126Z,97620.27
2018-06-04T11:04:06.187Z,97623.22
2018-06-04T11:06:35.987Z,97621.19
2018-06-04T11:11:19.428Z,97616.70
2018-06-04T11:13:49.537Z,97611.98
2018-06-04T11:16:20.840Z,97605.19
2018-06-04T11:18:57.359Z,97602.42
2018-06-04T11:21:27.248Z,97600.13
2018-06-04T11:23:57.299Z,97597.45
2018-06-04T11:26:27.179Z,97600.45
2018-06-04T11:28:58.831Z,97599.16
2018-06-04T11:31:28.950Z,97599.16
2018-06-04T11:34:14.682Z,97604.58
2018-06-04T11:36:44.516Z,97605.34
2018-06-04T11:39:15.022Z,97605.52
2018-06-04T11:41:46.057Z,97601.77
2018-06-04T11:44:24.483Z,97598.13
2018-06-04T11:46:54.615Z,97592.75
2018-06-04T11:49:25.192Z,97593.31
2018-06-04T11:51:55.240Z,97596.36
2018-06-04T11:54:26.180Z,97582.45
2018-06-04T11:56:58.442Z,97579.69
2018-06-04T11:59:56.435Z,97586.75
2018-06-04T12:06:23.092Z,97587.95
2018-06-04T12:08:53.527Z,97579.79
2018-06-04T12:11:25.012Z,97585.80
2018-06-04T12:13:55.303Z,97583.25
2018-06-04T12:16:25.533Z,97590.83
2018-06-04T12:18:55.664Z,97582.28
2018-06-04T12:21:26.233Z,97578.23
2018-06-04T12:23:56.410Z,97562.22
2018-06-04T12:26:29.089Z,97556.03
2018-06-04T12:31:57.490Z,97550.38
2018-06-04T12:34:36.906Z,97536.38
2018-06-04T12:37:10.853Z,97531.13
2018-06-04T12:39:42.739Z,97533.55
2018-06-04T12:42:18.735Z,97534.41
2018-06-04T12:44:48.640Z,97534.32
2018-06-04T12:47:20.071Z,97514.70
2018-06-04T12:49:49.895Z,97520.11
2018-06-04T12:52:19.724Z,97519.25
2018-06-04T12:54:54.809Z,97515.16
2018-06-04T12:57:29.421Z,97514.02
2018-06-04T12:59:59.299Z,97508.92
2018-06-04T13:02:40.367Z,97507.70
2018-06-04T13:05:12.307Z,97505.42
2018-06-04T13:07:42.331Z,97495.89
2018-06-04T13:10:12.367Z,97485.45
2018-06-04T13:12:45.836Z,97490.98
2018-06-04T13:15:16.094Z,97508.95
2018-06-04T13:17:47.309Z,97509.13
2018-06-04T13:20:17.468Z,97508.38
2018-06-04T13:22:51.917Z,97487.63
2018-06-04T13:28:01.169Z,97495.25
2018-06-04T13:30:31.315Z,97489.98
2018-06-04T13:33:01.430Z,97494.05
2018-06-04T13:35:32.933Z,97497.84
2018-06-04T13:38:04.064Z,97496.73
2018-06-04T13:40:37.316Z,97486.15
2018-06-04T13:43:08.541Z,97470.81
2018-06-04T13:45:44.794Z,97460.95
2018-06-04T13:48:15.682Z,97456.79
2018-06-04T13:50:45.640Z,97439.94
2018-06-04T13:53:17.078Z,97431.27
2018-06-04T13:55:47.885Z,97428.01
2018-06-04T13:58:17.720Z,97440.27
2018-06-04T14:00:48.437Z,97439.27
2018-06-04T14:03:18.373Z,97439.30
2018-06-04T14:05:48.481Z,97436.02
2018-06-04T14:08:33.278Z,97440.80
2018-06-04T14:11:03.132Z,97435.78
2018-06-04T14:13:33.596Z,97437.34
2018-06-04T14:16:03.512Z,97443.04
2018-06-04T14:18:36.525Z,97437.69
2018-06-04T14:21:12.953Z,97424.37
2018-06-04T14:23:43.408Z,97426.72
2018-06-04T14:26:13.616Z,97428.08
2018-06-04T14:31:40.795Z,97402.33
2018-06-04T14:34:13.666Z,97394.80
2018-06-04T14:36:46.855Z,97388.93
2018-06-04T14:39:17.339Z,97395.89
2018-06-04T14:41:51.102Z,97394.89
2018-06-04T14:44:21.216Z,97400.20
2018-06-04T14:46:53.064Z,97392.08
2018-06-04T14:49:25.619Z,97396.09
2018-06-04T14:51:55.762Z,97384.86
2018-06-04T14:54:26.409Z,97386.26
2018-06-04T14:56:58.256Z,97375.00
2018-06-04T14:59:35.052Z,97379.33
2018-06-04T15:02:05.576Z,97367.39
2018-06-04T15:05:02.220Z,97366.02
2018-06-04T15:07:34.390Z,97370.24
2018-06-04T15:11:09.284Z,97375.09
2018-06-04T15:13:40.370Z,97378.23
2018-06-04T15:16:12.445Z,97368.14
2018-06-04T15:18:44.122Z,97369.61
2018-06-04T15:21:16.434Z,97364.66
2018-06-04T15:23:48.224Z,97371.14
2018-06-04T15:26:19.380Z,97378.31
2018-06-04T15:28:52.345Z,97374.52
2018-06-04T15:31:23.803Z,97376.17
2018-06-04T15:33:57.173Z,97372.39
2018-06-04T15:36:29.057Z,97355.94
2018-06-04T15:39:10.109Z,97356.45
2018-06-04T15:41:41.694Z,97357.35
2018-06-04T15:44:26.998Z,97347.06
2018-06-04T15:47:05.431Z,97348.61
2018-06-04T15:49:37.086Z,97345.84
2018-06-04T15:52:18.543Z,97343.31
2018-06-04T15:54:48.955Z,97336.99
2018-06-04T15:57:19.293Z,97337.38
2018-06-04T15:59:54.082Z,97334.88
2018-06-04T16:02:28.130Z,97331.89
2018-06-04T16:04:59.624Z,97335.48
2018-06-04T16:07:30.606Z,97318.41
2018-06-04T16:10:04.092Z,97315.19
2018-06-04T16:12:35.109Z,97316.77
2018-06-04T16:15:08.340Z,97319.42
2018-06-04T16:17:40.273Z,97323.50
2018-06-04T16:20:11.181Z,97321.30
2018-06-04T16:22:45.731Z,97325.23
2018-06-04T16:25:17.561Z,97311.83
2018-06-04T16:28:00.787Z,97308.95
2018-06-04T16:30:32.378Z,97319.36
2018-06-04T16:33:10.513Z,97318.87
2018-06-04T16:35:41.751Z,97318.40
2018-06-04T16:38:13.323Z,97321.99
2018-06-04T16:40:48.899Z,97322.59
2018-06-04T16:43:21.956Z,97316.14
2018-06-04T16:48:59.765Z,97322.89
2018-06-04T16:51:41.941Z,97323.00
2018-06-04T16:54:17.254Z,97326.64
2018-06-04T16:57:04.110Z,97327.38
2018-06-04T16:59:38.230Z,97323.13
2018-06-04T17:02:21.247Z,97319.98
2018-06-04T17:05:00.190Z,97325.02
2018-06-04T17:07:32.201Z,97337.06
2018-06-04T17:10:08.426Z,97327.97
2018-06-04T17:17:04.770Z,97338.73
2018-06-04T17:19:39.810Z,97334.88
2018-06-04T17:22:10.517Z,97330.08
2018-06-04T17:24:42.309Z,97329.70
2018-06-04T17:30:20.110Z,97333.54
2018-06-04T17:32:57.088Z,97329.64
2018-06-04T17:35:31.873Z,97331.88
2018-06-04T17:38:03.512Z,97331.30
2018-06-04T17:40:36.051Z,97330.84
2018-06-04T17:46:03.196Z,97331.61
2018-06-04T17:48:38.561Z,97327.05
2018-06-04T17:51:11.246Z,97326.77
2018-06-04T17:53:42.460Z,97324.64
2018-06-04T17:56:13.506Z,97322.37
2018-06-04T17:58:43.565Z,97321.64
2018-06-04T18:01:14.628Z,97318.41
2018-06-04T18:06:37.083Z,97317.66
2018-06-04T18:09:14.928Z,97301.73
2018-06-04T18:16:35.202Z,97310.27
2018-06-04T18:19:22.973Z,97307.58
2018-06-04T18:21:59.531Z,97312.52
2018-06-04T18:24:33.344Z,97314.77
2018-06-04T18:27:05.278Z,97315.87
2018-06-04T18:32:36.262Z,97337.06
2018-06-04T18:35:25.645Z,97332.30
2018-06-04T18:38:09.870Z,97336.48
2018-06-04T18:40:52.111Z,97334.37
2018-06-04T18:43:27.102Z,97339.02
2018-06-04T18:48:59.659Z,97346.72
2018-06-04T18:51:42.249Z,97349.00
2018-06-04T18:54:32.096Z,97346.44
2018-06-04T19:06:46.492Z,97376.25
2018-06-04T19:15:21.803Z,97383.27
2018-06-04T19:17:55.327Z,97386.89
2018-06-04T19:20:38.131Z,97393.58
2018-06-04T19:23:19.053Z,97399.26
2018-06-04T19:26:08.093Z,97401.65
2018-06-04T19:28:48.204Z,97407.06
2018-06-04T19:31:26.200Z,97415.68
2018-06-04T19:34:01.672Z,97418.69
2018-06-04T19:40:05.796Z,97428.02
2018-06-04T19:42:53.416Z,97437.88
2018-06-04T19:45:27.637Z,97436.77
2018-06-04T19:48:04.583Z,97437.43
2018-06-04T19:50:44.024Z,97441.70
2018-06-04T19:53:27.450Z,97439.86
2018-06-04T19:56:00.078Z,97444.52
2018-06-04T19:58:35.286Z,97447.05
2018-06-04T20:01:11.145Z,97449.23
2018-06-04T20:03:46.686Z,97455.79
2018-06-04T20:06:25.756Z,97458.58
2018-06-04T20:09:00.936Z,97458.45
2018-06-04T20:11:34.896Z,97458.53
2018-06-04T20:14:05.685Z,97459.15
2018-06-04T20:16:36.437Z,97461.42
2018-06-04T20:19:21.934Z,97458.63
2018-06-04T20:21:56.719Z,97464.22
2018-06-04T20:24:28.781Z,97461.50
2018-06-04T20:27:02.643Z,97457.70
2018-06-04T20:29:34.877Z,97466.94
2018-06-04T20:34:53.179Z,97467.48
2018-06-04T20:37:25.258Z,97471.58
2018-06-04T20:39:56.346Z,97470.77
2018-06-04T20:42:28.046Z,97469.80
2018-06-04T20:45:01.210Z,97466.06
2018-06-04T20:47:38.899Z,97466.66
2018-06-04T20:53:01.281Z,97473.95
2018-06-04T20:55:36.381Z,97468.43
2018-06-04T20:58:09.529Z,97466.91
2018-06-04T21:01:58.243Z,97462.67
2018-06-04T21:04:37.441Z,97463.36
2018-06-04T21:07:10.408Z,97469.04
2018-06-04T21:12:40.403Z,97471.79
2018-06-04T21:15:21.472Z,97466.20
2018-06-04T21:17:55.499Z,97469.63
2018-06-04T21:26:27.910Z,97475.00
2018-06-04T21:32:20.212Z,97480.08
2018-06-04T22:14:42.281Z,97459.44
2018-06-04T22:30:29.522Z,97453.83
2018-06-04T22:33:40.799Z,97462.64
2018-06-04T22:44:50.016Z,97448.86
2018-06-04T22:47:28.263Z,97441.09
2018-06-04T22:50:17.446Z,97444.56
2018-06-04T22:52:55.645Z,97435.80
2018-06-04T22:59:29.705Z,97436.78
2018-06-04T23:04:46.003Z,97431.30
2018-06-04T23:07:24.504Z,97428.00
2018-06-04T23:09:56.509Z,97430.33
2018-06-04T23:12:27.657Z,97428.98
2018-06-04T23:14:59.584Z,97438.13
2018-06-04T23:17:31.521Z,97429.98
2018-06-04T23:20:02.490Z,97438.45
2018-06-04T23:22:32.707Z,97439.25
2018-06-04T23:25:04.620Z,97425.69
2018-06-04T23:27:34.689Z,97432.26
2018-06-04T23:30:04.940Z,97428.97
2018-06-04T23:32:34.802Z,97421.98
2018-06-04T23:35:06.324Z,97426.27
2018-06-04T23:37:37.217Z,97425.95
2018-06-04T23:40:07.747Z,97421.96
2018-06-04T23:42:38.070Z,97427.91
2018-06-04T23:45:09.778Z,97418.97
2018-06-04T23:47:39.578Z,97423.41
2018-06-04T23:50:09.856Z,97415.30
2018-06-04T23:52:39.781Z,97420.58
2018-06-04T23:55:10.572Z,97416.92
2018-06-04T23:57:40.392Z,97418.06
